Time;durP1;ratioP1;P1;durP2;ratioP2;P2;SDS_P1;SDS_P2;PMS_P1;PMS_P2;Temp;Humidity;BMP_temperature;BMP_pressure;BME280_temperature;BME280_humidity;BME280_pressure;Samples;Min_cycle;Max_cycle;Signal;HPM_P1;HPM_P2
2022/11/11 00:01:14;;;;;;;21.75;7.70;;;11.90;99.90;;;;;;6130594;23;20013;-78
2022/11/11 00:03:41;;;;;;;18.05;7.68;;;11.80;99.90;;;;;;6130318;23;20029;-78
2022/11/11 00:06:15;;;;;;;21.63;8.98;;;11.90;99.90;;;;;;6156840;23;20005;-78
2022/11/11 00:08:41;;;;;;;18.33;8.32;;;11.90;99.90;;;;;;6157066;23;20096;-78
2022/11/11 00:11:11;;;;;;;23.25;9.70;;;11.90;99.90;;;;;;6130429;23;20010;-78
2022/11/11 00:13:38;;;;;;;18.65;9.07;;;11.80;99.90;;;;;;6130212;23;20021;-78
2022/11/11 00:16:15;;;;;;;21.00;9.05;;;11.80;99.90;;;;;;6131804;23;20059;-78
2022/11/11 00:26:46;;;;;;;21.05;10.40;;;11.70;99.90;;;;;;6130161;23;20025;-78
2022/11/11 00:29:12;;;;;;;23.10;10.23;;;11.70;99.90;;;;;;6130480;23;20022;-78
2022/11/11 00:32:21;;;;;;;23.65;9.27;;;11.80;99.90;;;;;;6130257;23;20468;-78
2022/11/11 00:34:23;;;;;;;22.73;10.82;;;11.70;99.90;;;;;;6155884;23;20462;-78
2022/11/11 00:36:49;;;;;;;21.63;10.88;;;11.80;99.90;;;;;;6130350;23;20017;-78
2022/11/11 00:39:15;;;;;;;21.45;11.18;;;11.70;99.90;;;;;;6156708;23;20014;-78
2022/11/11 00:41:40;;;;;;;24.17;11.18;;;11.70;99.90;;;;;;6130317;23;20434;-78
2022/11/11 00:44:06;;;;;;;20.85;10.27;;;11.70;99.90;;;;;;6130270;23;20094;-78
2022/11/11 00:52:00;;;;;;;29.42;12.15;;;11.70;99.90;;;;;;6131198;23;20033;-78
2022/11/11 00:54:26;;;;;;;24.95;11.90;;;11.70;99.90;;;;;;6156172;23;20017;-78
2022/11/11 00:56:51;;;;;;;24.92;11.45;;;11.70;99.90;;;;;;6130342;23;20021;-78
2022/11/11 00:59:17;;;;;;;26.13;12.15;;;11.60;99.90;;;;;;6130235;23;20017;-78
2022/11/11 01:01:42;;;;;;;26.42;11.82;;;11.70;99.90;;;;;;6130174;23;20434;-78
2022/11/11 01:04:08;;;;;;;22.98;11.85;;;11.70;99.90;;;;;;6130193;23;20075;-78
2022/11/11 01:06:34;;;;;;;26.52;11.85;;;11.60;99.90;;;;;;6156510;23;20441;-78
2022/11/11 01:09:04;;;;;;;29.08;11.43;;;11.60;99.90;;;;;;6130146;23;20061;-78
2022/11/11 01:11:30;;;;;;;28.05;11.73;;;11.60;99.90;;;;;;6156205;23;20020;-78
2022/11/11 01:13:55;;;;;;;31.77;12.40;;;11.60;99.90;;;;;;6129825;23;20025;-78
2022/11/11 01:16:24;;;;;;;27.85;12.15;;;11.60;99.90;;;;;;6132126;23;20085;-78
2022/11/11 01:18:51;;;;;;;26.40;11.75;;;11.60;99.90;;;;;;6159375;23;20551;-78
2022/11/11 01:21:22;;;;;;;24.40;12.13;;;11.70;99.90;;;;;;6133283;23;20088;-78
2022/11/11 01:23:49;;;;;;;25.05;11.63;;;11.60;99.90;;;;;;6133317;23;20021;-78
2022/11/11 01:26:23;;;;;;;23.25;11.65;;;11.70;99.90;;;;;;6133338;23;20018;-78
2022/11/11 01:28:53;;;;;;;26.33;11.23;;;11.70;99.90;;;;;;6159598;23;20029;-78
2022/11/11 01:31:20;;;;;;;28.17;12.25;;;11.70;99.90;;;;;;6133274;23;20018;-78
2022/11/11 01:33:47;;;;;;;29.42;12.18;;;11.60;99.90;;;;;;6133220;23;20346;-78
2022/11/11 01:36:25;;;;;;;31.63;12.23;;;11.70;99.90;;;;;;6159646;23;20017;-78
2022/11/11 01:38:53;;;;;;;28.60;12.20;;;11.60;99.90;;;;;;6133335;23;20458;-78
2022/11/11 01:41:31;;;;;;;26.95;12.25;;;11.60;99.90;;;;;;6159596;23;20021;-77
2022/11/11 01:43:58;;;;;;;23.63;12.05;;;11.60;99.90;;;;;;6159740;23;20021;-78
2022/11/11 01:46:45;;;;;;;25.60;12.32;;;11.60;99.90;;;;;;6133200;23;20461;-78
2022/11/11 01:49:28;;;;;;;25.20;12.40;;;11.60;99.90;;;;;;6133209;23;20025;-78
2022/11/11 01:52:12;;;;;;;24.10;12.32;;;11.60;99.90;;;;;;6133272;23;20542;-77
2022/11/11 01:54:44;;;;;;;28.33;12.63;;;11.60;99.90;;;;;;6133056;23;20025;-78
2022/11/11 01:57:18;;;;;;;23.90;12.32;;;11.60;99.90;;;;;;6159350;23;20021;-78
2022/11/11 01:59:47;;;;;;;27.23;12.27;;;11.60;99.90;;;;;;6159685;23;20014;-78
2022/11/11 02:02:29;;;;;;;27.70;14.32;;;11.60;99.90;;;;;;6133153;23;20033;-78
2022/11/11 02:07:41;;;;;;;29.00;12.77;;;11.50;99.90;;;;;;6133074;23;20033;-78
2022/11/11 02:10:08;;;;;;;31.33;12.68;;;11.60;99.90;;;;;;6159226;23;20096;-78
2022/11/11 02:15:20;;;;;;;25.40;12.73;;;11.50;99.90;;;;;;6059870;23;20032;-78
2022/11/11 02:17:48;;;;;;;25.25;12.07;;;11.60;99.90;;;;;;6103725;23;20084;-78
2022/11/11 02:20:17;;;;;;;25.90;13.07;;;11.60;99.90;;;;;;6129719;23;20018;-78
2022/11/11 02:23:14;;;;;;;26.90;12.90;;;11.60;99.90;;;;;;6103754;23;20025;-78
2022/11/11 02:25:44;;;;;;;28.90;13.32;;;11.60;99.90;;;;;;6103787;23;20057;-78
2022/11/11 02:28:12;;;;;;;30.45;13.13;;;11.60;99.90;;;;;;6102165;23;20050;-78
2022/11/11 02:30:37;;;;;;;26.27;12.38;;;11.60;99.90;;;;;;6102061;23;20025;-78
2022/11/11 02:33:04;;;;;;;24.85;12.30;;;11.60;99.90;;;;;;6101980;23;20014;-78
2022/11/11 02:35:32;;;;;;;26.38;12.70;;;11.60;99.90;;;;;;6127967;23;20324;-78
2022/11/11 02:37:59;;;;;;;29.90;13.07;;;11.60;99.90;;;;;;6101928;23;20026;-78
2022/11/11 02:43:25;;;;;;;30.42;13.43;;;11.60;99.90;;;;;;6126610;23;20075;-78
2022/11/11 02:45:50;;;;;;;27.25;13.20;;;11.70;99.90;;;;;;6127977;23;20026;-78
2022/11/11 02:48:16;;;;;;;37.53;13.73;;;11.60;99.90;;;;;;6128314;23;20016;-78
2022/11/11 02:50:42;;;;;;;25.70;14.13;;;11.60;99.90;;;;;;6127910;23;20022;-78
2022/11/11 02:53:08;;;;;;;29.55;13.43;;;11.60;99.90;;;;;;6127800;23;20697;-78
2022/11/11 02:55:33;;;;;;;30.52;13.80;;;11.60;99.90;;;;;;6101959;23;20018;-78
2022/11/11 02:58:00;;;;;;;30.90;13.88;;;11.60;99.90;;;;;;6128210;23;20068;-78
2022/11/11 03:00:25;;;;;;;27.55;14.40;;;11.60;99.90;;;;;;6102144;23;20022;-78
2022/11/11 03:02:51;;;;;;;25.83;14.18;;;11.60;99.90;;;;;;6128150;23;20010;-78
2022/11/11 03:05:16;;;;;;;26.42;14.68;;;11.50;99.90;;;;;;6126344;23;20021;-78
2022/11/11 03:07:42;;;;;;;28.02;15.18;;;11.50;99.90;;;;;;6101917;23;20028;-78
2022/11/11 03:10:08;;;;;;;26.05;14.35;;;11.50;99.90;;;;;;6128105;23;20022;-77
2022/11/11 03:12:34;;;;;;;31.83;14.70;;;11.60;99.90;;;;;;6101711;23;20018;-78
2022/11/11 03:14:59;;;;;;;33.60;16.73;;;11.60;99.90;;;;;;6150167;23;20100;-78
2022/11/11 03:17:40;;;;;;;35.90;17.20;;;11.50;99.90;;;;;;6157066;23;20022;-78
2022/11/11 03:22:59;;;;;;;;;;;11.50;99.90;;;;;;6131510;23;20032;-78
2022/11/11 03:25:37;;;;;;;35.38;16.70;;;11.40;99.90;;;;;;6131039;23;19923;-78
2022/11/11 03:28:14;;;;;;;35.35;17.17;;;11.40;99.90;;;;;;6131003;23;20024;-78
2022/11/11 03:30:46;;;;;;;31.83;17.63;;;11.40;99.90;;;;;;6157106;23;20021;-78
2022/11/11 03:33:13;;;;;;;33.70;18.40;;;11.40;99.90;;;;;;6157169;23;20022;-78
2022/11/11 03:35:39;;;;;;;33.78;17.45;;;11.40;99.90;;;;;;6130718;23;20136;-78
2022/11/11 03:38:22;;;;;;;32.83;17.15;;;11.40;99.90;;;;;;6130743;23;20025;-78
2022/11/11 03:40:54;;;;;;;40.25;17.98;;;11.40;99.90;;;;;;6156933;23;20097;-78
2022/11/11 03:43:21;;;;;;;30.88;17.85;;;11.40;99.90;;;;;;6157004;23;20053;-78
2022/11/11 03:45:47;;;;;;;35.63;18.30;;;11.40;99.90;;;;;;6130738;23;20324;-78
2022/11/11 03:48:14;;;;;;;37.53;18.13;;;11.30;99.90;;;;;;6130710;23;20516;-78
2022/11/11 03:50:40;;;;;;;33.83;17.73;;;11.30;99.90;;;;;;6157163;23;20017;-78
2022/11/11 03:53:06;;;;;;;41.45;18.25;;;11.30;99.90;;;;;;6130585;23;20022;-77
2022/11/11 03:55:32;;;;;;;42.03;17.77;;;11.40;99.90;;;;;;6130639;23;20021;-78
2022/11/11 03:57:57;;;;;;;37.20;18.25;;;11.40;99.90;;;;;;6130653;23;20021;-77
2022/11/11 04:00:26;;;;;;;46.92;18.50;;;11.40;99.90;;;;;;6130650;23;20025;-78
2022/11/11 04:11:19;;;;;;;38.83;21.80;;;11.40;99.90;;;;;;6130466;23;20394;-77
2022/11/11 04:16:31;;;;;;;40.28;20.40;;;11.40;99.90;;;;;;6130359;23;20017;-77
2022/11/11 04:21:44;;;;;;;49.85;21.88;;;11.30;99.90;;;;;;6156824;23;20070;-77
2022/11/11 04:27:01;;;;;;;43.67;21.92;;;11.30;99.90;;;;;;6130432;23;20032;-77
2022/11/11 04:29:27;;;;;;;36.70;21.02;;;11.30;99.90;;;;;;6130388;23;20025;-78
2022/11/11 04:34:42;;;;;;;43.63;22.13;;;11.20;99.90;;;;;;6156657;23;20072;-78
2022/11/11 04:37:09;;;;;;;41.80;21.63;;;11.20;99.90;;;;;;6130465;23;20013;-78
2022/11/11 04:42:18;;;;;;;50.55;24.42;;;11.20;99.90;;;;;;6156773;23;20027;-78
2022/11/11 04:47:28;;;;;;;45.28;24.85;;;11.20;99.90;;;;;;6130280;23;20072;-77
2022/11/11 04:49:54;;;;;;;52.13;24.55;;;11.20;99.90;;;;;;6156293;23;20021;-78
2022/11/11 04:52:25;;;;;;;50.85;24.33;;;11.20;99.90;;;;;;6130210;23;20023;-78
2022/11/11 04:57:44;;;;;;;47.15;26.35;;;11.10;99.90;;;;;;6130140;23;20477;-77
2022/11/11 05:00:15;;;;;;;55.65;26.13;;;11.10;99.90;;;;;;6156736;23;20017;-78
2022/11/11 05:05:27;;;;;;;49.72;25.25;;;11.10;99.90;;;;;;6130003;23;20032;-77
2022/11/11 05:10:38;;;;;;;52.10;26.15;;;11.20;99.90;;;;;;6156554;23;20076;-77
2022/11/11 05:21:24;;;;;;;52.80;25.48;;;11.10;99.90;;;;;;6156539;23;20028;-78
2022/11/11 05:26:34;;;;;;;57.05;27.05;;;11.10;99.90;;;;;;6129896;23;19965;-78
2022/11/11 05:29:01;;;;;;;55.40;26.05;;;11.10;99.90;;;;;;6130029;23;20026;-77
2022/11/11 05:31:27;;;;;;;53.80;28.08;;;11.10;99.90;;;;;;6156404;23;20009;-77
2022/11/11 05:33:53;;;;;;;55.78;27.85;;;11.20;99.90;;;;;;6156337;23;20048;-77
2022/11/11 05:36:18;;;;;;;56.10;28.00;;;11.10;99.90;;;;;;6130088;23;20048;-77
2022/11/11 05:38:44;;;;;;;57.38;27.20;;;11.10;99.90;;;;;;6130015;23;20342;-77
2022/11/11 05:41:09;;;;;;;57.17;28.17;;;11.10;99.90;;;;;;6156100;23;20342;-78
2022/11/11 05:43:35;;;;;;;62.28;28.63;;;11.00;99.90;;;;;;6156424;23;20017;-77
2022/11/11 05:46:01;;;;;;;59.15;28.50;;;11.10;99.90;;;;;;6130020;23;20526;-78
2022/11/11 05:48:26;;;;;;;55.80;28.80;;;11.00;99.90;;;;;;6156312;23;20068;-77
2022/11/11 05:50:52;;;;;;;63.53;28.35;;;11.10;99.90;;;;;;6129897;23;20040;-78
2022/11/11 05:53:22;;;;;;;57.92;28.75;;;11.10;99.90;;;;;;6129828;23;20018;-77
2022/11/11 05:55:51;;;;;;;64.57;29.00;;;11.00;99.90;;;;;;6130022;23;20025;-78
2022/11/11 05:58:18;;;;;;;62.80;30.02;;;11.00;99.90;;;;;;6156300;23;20017;-78
2022/11/11 06:00:44;;;;;;;58.70;27.38;;;11.00;99.90;;;;;;6129924;23;20096;-77
2022/11/11 06:03:09;;;;;;;60.13;27.65;;;11.00;99.90;;;;;;6157207;23;20048;-78
2022/11/11 06:05:36;;;;;;;55.35;28.38;;;11.00;99.90;;;;;;6131743;23;20049;-78
2022/11/11 06:08:02;;;;;;;59.15;28.98;;;11.00;99.90;;;;;;6131393;23;20017;-78
2022/11/11 06:10:30;;;;;;;56.55;27.67;;;11.00;99.90;;;;;;6157738;23;20052;-78
2022/11/11 06:13:08;;;;;;;54.08;26.58;;;11.00;99.90;;;;;;6131541;23;20021;-78
2022/11/11 06:15:36;;;;;;;51.75;25.60;;;10.90;99.90;;;;;;6131745;23;20031;-78
2022/11/11 06:18:03;;;;;;;60.90;27.15;;;10.90;99.90;;;;;;6131509;23;20017;-78
2022/11/11 06:20:29;;;;;;;51.35;26.25;;;11.00;99.90;;;;;;6157518;23;20056;-78
2022/11/11 06:22:55;;;;;;;53.35;25.15;;;11.00;99.90;;;;;;6131593;23;20043;-78
2022/11/11 06:28:05;;;;;;;51.08;25.48;;;11.00;99.90;;;;;;6131419;23;20520;-78
2022/11/11 06:30:31;;;;;;;51.78;27.00;;;11.00;99.90;;;;;;6131592;23;20018;-78
2022/11/11 06:32:56;;;;;;;53.97;27.45;;;10.90;99.90;;;;;;6157516;23;20013;-77
2022/11/11 06:35:22;;;;;;;59.45;27.35;;;11.00;99.90;;;;;;6131552;23;20048;-77
2022/11/11 06:37:47;;;;;;;52.33;26.88;;;11.00;99.90;;;;;;6155981;23;20338;-77
2022/11/11 06:40:14;;;;;;;54.13;26.63;;;11.00;99.90;;;;;;6131469;23;20024;-78
2022/11/11 06:42:39;;;;;;;51.72;25.55;;;11.00;99.90;;;;;;6157500;23;20553;-78
2022/11/11 06:45:05;;;;;;;57.55;27.25;;;11.00;99.90;;;;;;6131414;23;20022;-78
2022/11/11 06:47:31;;;;;;;60.70;26.52;;;11.00;99.90;;;;;;6131390;23;20018;-77
2022/11/11 06:49:56;;;;;;;59.15;26.33;;;11.00;99.90;;;;;;6157410;23;20075;-77
2022/11/11 06:52:22;;;;;;;54.20;26.95;;;11.00;99.90;;;;;;6131377;23;20017;-78
2022/11/11 06:54:48;;;;;;;53.75;25.98;;;11.00;99.90;;;;;;6131237;23;20018;-78
2022/11/11 06:57:13;;;;;;;53.75;25.67;;;11.00;99.90;;;;;;6157238;23;20014;-77
2022/11/11 06:59:39;;;;;;;60.10;26.13;;;11.10;99.90;;;;;;6130933;23;20025;-78
2022/11/11 07:02:05;;;;;;;53.42;25.23;;;11.10;99.90;;;;;;6130903;23;20044;-78
2022/11/11 07:04:30;;;;;;;50.35;24.42;;;11.00;99.90;;;;;;6130103;23;20088;-77
2022/11/11 07:06:56;;;;;;;47.22;23.27;;;11.10;99.90;;;;;;6129242;23;20022;-78
2022/11/11 07:09:24;;;;;;;49.83;25.67;;;11.10;99.90;;;;;;6130532;23;20018;-77
2022/11/11 07:11:50;;;;;;;49.80;23.10;;;11.10;99.90;;;;;;6131104;23;20029;-77
2022/11/11 07:14:15;;;;;;;54.53;24.38;;;11.10;99.90;;;;;;6144333;23;20029;-78
2022/11/11 07:16:41;;;;;;;48.63;24.20;;;11.10;99.90;;;;;;6160665;23;20021;-78
2022/11/11 07:19:07;;;;;;;52.40;23.02;;;11.10;99.90;;;;;;6160479;23;20028;-78
2022/11/11 07:21:32;;;;;;;54.63;23.55;;;11.20;99.90;;;;;;6160591;23;20017;-77
2022/11/11 07:23:58;;;;;;;46.25;22.98;;;11.20;99.90;;;;;;6160537;23;20028;-78
2022/11/11 07:26:23;;;;;;;49.75;23.85;;;11.20;99.90;;;;;;6160435;23;20020;-78
2022/11/11 07:28:50;;;;;;;44.08;22.48;;;11.20;99.90;;;;;;6160410;23;20433;-78
2022/11/11 07:31:15;;;;;;;44.47;23.67;;;11.20;99.90;;;;;;6186930;23;20103;-78
2022/11/11 07:33:44;;;;;;;47.83;24.25;;;11.20;99.90;;;;;;6160155;23;20032;-78
2022/11/11 07:36:10;;;;;;;48.40;23.60;;;11.20;99.90;;;;;;6160242;23;20092;-78
2022/11/11 07:38:35;;;;;;;48.45;24.67;;;11.20;99.90;;;;;;6186910;23;20471;-76
2022/11/11 07:41:01;;;;;;;52.75;23.55;;;11.30;99.90;;;;;;6159471;23;20021;-77
2022/11/11 07:43:26;;;;;;;55.22;25.00;;;11.30;99.90;;;;;;6186518;23;20063;-77
2022/11/11 07:45:52;;;;;;;46.83;24.02;;;11.30;99.90;;;;;;6160004;23;20072;-77
2022/11/11 07:48:18;;;;;;;53.10;24.00;;;11.20;99.90;;;;;;6159903;23;20017;-77
2022/11/11 07:50:43;;;;;;;54.53;24.40;;;11.30;99.90;;;;;;6186326;23;20021;-77
2022/11/11 07:53:09;;;;;;;49.47;23.88;;;11.30;99.90;;;;;;6186458;23;20025;-77
2022/11/11 07:55:34;;;;;;;47.83;23.13;;;11.30;99.90;;;;;;6186287;23;20017;-77
2022/11/11 07:58:01;;;;;;;52.53;24.58;;;11.30;99.90;;;;;;6186123;23;20393;-77
2022/11/11 08:00:27;;;;;;;50.70;22.17;;;11.30;99.90;;;;;;6186140;23;20017;-77
2022/11/11 08:02:52;;;;;;;43.85;22.83;;;11.30;99.90;;;;;;6186428;23;20116;-77
2022/11/11 08:05:18;;;;;;;50.72;24.90;;;11.30;99.90;;;;;;6159786;23;20025;-77
2022/11/11 08:07:44;;;;;;;44.53;23.67;;;11.30;99.90;;;;;;6159866;23;20331;-79
2022/11/11 08:10:10;;;;;;;49.30;24.52;;;11.40;99.90;;;;;;6186034;23;20475;-77
2022/11/11 08:15:21;;;;;;;49.80;22.92;;;11.40;99.90;;;;;;6185945;23;20121;-77
2022/11/11 08:17:47;;;;;;;48.40;24.17;;;11.40;99.90;;;;;;6186397;23;20468;-77
2022/11/11 08:20:13;;;;;;;46.80;23.15;;;11.40;99.90;;;;;;6159741;23;20020;-77
2022/11/11 08:22:40;;;;;;;55.53;25.60;;;11.40;99.90;;;;;;6186296;23;20013;-77
2022/11/11 08:25:12;;;;;;;50.70;25.95;;;11.40;99.90;;;;;;6186008;23;20013;-77
2022/11/11 08:27:38;;;;;;;48.35;24.70;;;11.40;99.90;;;;;;6185834;23;20025;-77
2022/11/11 08:30:06;;;;;;;61.67;24.95;;;11.40;99.90;;;;;;6186289;23;20009;-77
2022/11/11 08:32:31;;;;;;;51.50;23.42;;;11.40;99.90;;;;;;6185829;23;20479;-77
2022/11/11 08:34:57;;;;;;;56.90;26.38;;;11.40;99.90;;;;;;6185729;23;20017;-77
2022/11/11 08:37:22;;;;;;;53.50;25.77;;;11.40;99.90;;;;;;6186187;23;20044;-77
2022/11/11 08:39:48;;;;;;;57.03;25.80;;;11.40;99.90;;;;;;6186148;23;20048;-77
2022/11/11 08:42:14;;;;;;;52.95;26.20;;;11.40;99.90;;;;;;6186026;23;20017;-77
2022/11/11 08:44:40;;;;;;;54.45;24.65;;;11.40;99.90;;;;;;6159484;23;20021;-77
2022/11/11 08:47:05;;;;;;;59.20;26.75;;;11.40;99.90;;;;;;6185842;23;20066;-78
2022/11/11 08:49:31;;;;;;;60.08;27.38;;;11.40;99.90;;;;;;6185760;23;20052;-77
2022/11/11 08:51:56;;;;;;;52.60;25.25;;;11.40;99.90;;;;;;6159529;23;20100;-77
2022/11/11 08:54:22;;;;;;;59.28;26.10;;;11.40;99.90;;;;;;6159242;23;20031;-76
2022/11/11 08:56:47;;;;;;;56.47;25.83;;;11.40;99.90;;;;;;6159321;23;20071;-77
2022/11/11 08:59:13;;;;;;;58.85;27.88;;;11.40;99.90;;;;;;6159425;23;20025;-77
2022/11/11 09:01:39;;;;;;;57.55;27.58;;;11.40;99.90;;;;;;6159319;23;20013;-77
2022/11/11 09:04:04;;;;;;;59.90;28.40;;;11.40;99.90;;;;;;6186030;23;20525;-77
2022/11/11 09:06:30;;;;;;;56.60;26.50;;;11.40;99.90;;;;;;6159202;23;20021;-77
2022/11/11 09:08:56;;;;;;;51.85;27.98;;;11.40;99.90;;;;;;6185978;23;20028;-78
2022/11/11 09:11:21;;;;;;;55.83;27.48;;;11.40;99.90;;;;;;6159168;23;20025;-77
2022/11/11 09:13:47;;;;;;;58.10;29.35;;;11.30;99.90;;;;;;6185561;23;20025;-77
2022/11/11 09:16:13;;;;;;;55.45;28.05;;;11.30;99.90;;;;;;6185914;23;20325;-77
2022/11/11 09:18:38;;;;;;;60.15;27.38;;;11.30;99.90;;;;;;6159300;23;20063;-77
2022/11/11 09:21:05;;;;;;;62.25;29.60;;;11.30;99.90;;;;;;6185830;23;20013;-77
2022/11/11 09:23:30;;;;;;;61.25;28.55;;;11.30;99.90;;;;;;6159274;23;20013;-78
2022/11/11 09:26:02;;;;;;;63.55;29.35;;;11.30;99.90;;;;;;6185737;23;20064;-78
2022/11/11 09:28:30;;;;;;;52.33;26.57;;;11.30;99.90;;;;;;6185650;23;20334;-78
2022/11/11 09:30:59;;;;;;;57.83;29.15;;;11.30;99.90;;;;;;6185780;23;20323;-77
2022/11/11 09:33:24;;;;;;;57.13;26.70;;;11.30;99.90;;;;;;6159076;23;20021;-77
2022/11/11 09:35:50;;;;;;;54.92;26.80;;;11.30;99.90;;;;;;6159280;23;20028;-77
2022/11/11 09:38:15;;;;;;;56.67;27.10;;;11.30;99.90;;;;;;6161063;23;20027;-78
2022/11/11 09:41:02;;;;;;;67.00;27.50;;;11.30;99.90;;;;;;6161110;23;20345;-77
2022/11/11 09:43:56;;;;;;;51.92;25.52;;;11.30;99.90;;;;;;6187952;23;20048;-77
2022/11/11 09:46:38;;;;;;;58.25;28.52;;;11.30;99.90;;;;;;6161172;23;20071;-77
2022/11/11 09:50:00;;;;;;;57.72;28.40;;;11.30;99.90;;;;;;6187455;23;20409;-78
2022/11/11 09:52:36;;;;;;;52.92;25.83;;;11.30;99.90;;;;;;6106065;23;20408;-77
2022/11/11 09:55:11;;;;;;;58.35;27.30;;;11.30;99.90;;;;;;6187521;23;20040;-77
2022/11/11 09:57:50;;;;;;;60.40;27.98;;;11.30;99.90;;;;;;6161009;23;20013;-77
2022/11/11 10:00:21;;;;;;;62.85;28.10;;;11.30;99.90;;;;;;6160984;23;20017;-77
2022/11/11 10:02:52;;;;;;;60.85;27.02;;;11.30;99.90;;;;;;6187638;23;20013;-77
2022/11/11 10:05:26;;;;;;;61.25;26.40;;;11.30;99.90;;;;;;6160930;23;20028;-77
2022/11/11 10:08:20;;;;;;;53.70;25.23;;;11.40;99.90;;;;;;6187535;23;20075;-83
2022/11/11 10:10:48;;;;;;;60.45;26.08;;;11.40;99.90;;;;;;6147561;23;20017;-77
2022/11/11 10:13:28;;;;;;;58.00;27.52;;;11.30;99.90;;;;;;6187309;23;20013;-78
2022/11/11 10:16:02;;;;;;;54.05;26.77;;;11.30;99.90;;;;;;6160780;23;20025;-78
2022/11/11 10:19:00;;;;;;;57.22;27.17;;;11.30;99.90;;;;;;6160875;23;20020;-78
2022/11/11 10:21:38;;;;;;;58.50;25.73;;;11.30;99.90;;;;;;6186281;23;20017;-78
2022/11/11 10:24:12;;;;;;;63.50;27.13;;;11.30;99.90;;;;;;6160750;23;20318;-79
2022/11/11 10:26:40;;;;;;;60.80;27.08;;;11.30;99.90;;;;;;6187460;23;20028;-78
2022/11/11 10:29:16;;;;;;;60.28;27.38;;;11.30;99.90;;;;;;6186929;23;20529;-77
2022/11/11 10:31:43;;;;;;;56.80;27.48;;;11.30;99.90;;;;;;6161356;23;20021;-77
2022/11/11 10:34:11;;;;;;;59.80;26.20;;;11.40;99.90;;;;;;6160877;23;20509;-77
2022/11/11 10:36:43;;;;;;;56.90;24.95;;;11.30;99.90;;;;;;6160556;23;20021;-77
2022/11/11 10:39:12;;;;;;;52.58;26.30;;;11.40;99.90;;;;;;6186233;23;20075;-77
2022/11/11 10:41:49;;;;;;;62.38;25.95;;;11.40;99.90;;;;;;6160494;23;20043;-77
2022/11/11 10:44:28;;;;;;;51.65;27.05;;;11.30;99.90;;;;;;6160545;23;20021;-78
2022/11/11 10:47:17;;;;;;;57.55;27.60;;;11.40;99.90;;;;;;6186907;23;20342;-77
2022/11/11 10:50:05;;;;;;;60.90;26.92;;;11.30;99.90;;;;;;6160767;23;20027;-77
2022/11/11 10:53:06;;;;;;;52.53;26.33;;;11.40;99.90;;;;;;6160507;23;20017;-77
2022/11/11 10:55:38;;;;;;;51.13;24.77;;;11.40;99.90;;;;;;6179834;23;20024;-77
2022/11/11 10:58:26;;;;;;;50.85;25.05;;;11.30;99.90;;;;;;6187160;23;20017;-79
2022/11/11 11:00:54;;;;;;;59.97;28.52;;;11.40;99.90;;;;;;6160462;23;20088;-77
2022/11/11 11:03:58;;;;;;;52.97;27.23;;;11.40;99.90;;;;;;6187073;23;20088;-77
2022/11/11 11:06:29;;;;;;;50.05;25.60;;;11.40;99.90;;;;;;6038422;23;20464;-78
2022/11/11 11:09:26;;;;;;;50.00;25.17;;;11.40;99.90;;;;;;6138662;23;20020;-78
2022/11/11 11:11:59;;;;;;;51.92;26.02;;;11.40;99.90;;;;;;6150120;23;20096;-78
2022/11/11 11:14:40;;;;;;;49.00;25.88;;;11.50;99.90;;;;;;6159994;23;20358;-78
2022/11/11 11:17:49;;;;;;;51.30;23.90;;;11.50;99.90;;;;;;6160352;23;20020;-77
2022/11/11 11:20:19;;;;;;;57.47;27.02;;;11.50;99.90;;;;;;6144298;23;20102;-78
2022/11/11 11:22:54;;;;;;;54.28;26.42;;;11.50;99.90;;;;;;6160261;23;20024;-78
2022/11/11 11:25:21;;;;;;;51.33;25.42;;;11.60;99.90;;;;;;6160188;23;20025;-77
2022/11/11 11:27:50;;;;;;;53.08;26.65;;;11.60;99.90;;;;;;6186734;23;20084;-77
2022/11/11 11:30:20;;;;;;;52.78;27.13;;;11.50;99.90;;;;;;6160131;23;20023;-77
2022/11/11 11:33:00;;;;;;;52.00;24.67;;;11.60;99.90;;;;;;6160087;23;20068;-77
2022/11/11 11:35:41;;;;;;;49.28;24.48;;;11.60;99.90;;;;;;6160101;23;20020;-77
2022/11/11 11:38:09;;;;;;;51.90;25.63;;;11.60;99.90;;;;;;6186824;23;20009;-77
2022/11/11 11:40:55;;;;;;;52.97;24.05;;;11.60;99.90;;;;;;6160345;23;20028;-77
2022/11/11 11:43:25;;;;;;;48.17;25.77;;;11.70;99.90;;;;;;6159994;23;20020;-78
2022/11/11 11:45:58;;;;;;;54.55;24.13;;;11.60;99.90;;;;;;6159395;23;20015;-77
2022/11/11 11:48:32;;;;;;;46.08;23.15;;;11.60;99.90;;;;;;6158740;23;20327;-77
2022/11/11 11:51:27;;;;;;;54.10;25.08;;;11.60;99.90;;;;;;6160234;23;20059;-77
2022/11/11 11:54:02;;;;;;;51.22;25.23;;;11.60;99.90;;;;;;6186348;23;20333;-78
2022/11/11 11:56:48;;;;;;;51.00;25.17;;;11.60;99.90;;;;;;6160087;23;20327;-77
2022/11/11 12:00:03;;;;;;;46.70;23.77;;;11.60;99.90;;;;;;6160074;23;20044;-77
2022/11/11 12:02:57;;;;;;;48.30;24.42;;;11.60;99.90;;;;;;6080551;23;20024;-77
2022/11/11 12:05:42;;;;;;;48.17;23.67;;;11.50;99.90;;;;;;6160008;23;20100;-77
2022/11/11 12:08:32;;;;;;;50.15;24.05;;;11.60;99.90;;;;;;6186566;23;20084;-77
2022/11/11 12:11:03;;;;;;;50.90;24.25;;;11.60;99.90;;;;;;6186665;23;20055;-77
2022/11/11 12:13:37;;;;;;;51.83;23.95;;;11.60;99.90;;;;;;6158719;23;20048;-77
2022/11/11 12:16:21;;;;;;;45.10;24.95;;;11.60;99.90;;;;;;6159957;23;20476;-77
2022/11/11 12:19:04;;;;;;;52.75;24.02;;;11.50;99.90;;;;;;6160094;23;20031;-77
2022/11/11 12:22:10;;;;;;;41.13;23.05;;;11.50;99.90;;;;;;6160394;23;20024;-77
2022/11/11 12:24:59;;;;;;;52.33;25.15;;;11.50;99.90;;;;;;6037813;23;20071;-77
2022/11/11 12:27:36;;;;;;;44.75;24.02;;;11.60;99.90;;;;;;6152325;23;20028;-77
2022/11/11 12:30:10;;;;;;;50.92;24.65;;;11.50;99.90;;;;;;6159880;23;20062;-77
2022/11/11 12:33:04;;;;;;;45.33;24.15;;;11.50;99.90;;;;;;6159827;23;20020;-77
2022/11/11 12:35:36;;;;;;;50.17;24.42;;;11.50;99.90;;;;;;6159629;23;20080;-77
2022/11/11 12:38:47;;;;;;;55.60;24.85;;;11.50;99.90;;;;;;6159716;23;20331;-77
2022/11/11 12:41:27;;;;;;;46.72;22.23;;;11.50;99.90;;;;;;6104473;23;20452;-77
2022/11/11 12:44:07;;;;;;;50.30;25.88;;;11.50;99.90;;;;;;6159577;23;20021;-78
2022/11/11 12:47:09;;;;;;;51.65;24.52;;;11.60;99.90;;;;;;6159570;23;20350;-77
2022/11/11 12:49:52;;;;;;;47.60;23.35;;;11.50;99.90;;;;;;6159609;23;20032;-78
2022/11/11 12:52:48;;;;;;;49.00;23.47;;;11.60;99.90;;;;;;6159672;23;20056;-77
2022/11/11 12:55:24;;;;;;;45.58;24.42;;;11.50;99.90;;;;;;6159592;23;20017;-78
2022/11/11 12:58:19;;;;;;;47.88;23.30;;;11.50;99.90;;;;;;6159659;23;20543;-78
2022/11/11 13:01:28;;;;;;;49.15;23.60;;;11.60;99.90;;;;;;6154184;23;20017;-78
2022/11/11 13:04:12;;;;;;;49.58;23.85;;;11.60;99.90;;;;;;6186208;23;20083;-77
2022/11/11 13:06:43;;;;;;;46.30;23.42;;;11.50;99.90;;;;;;6185767;23;20545;-77
2022/11/11 13:09:41;;;;;;;48.90;23.65;;;11.60;99.90;;;;;;6185908;23;20032;-78
2022/11/11 13:12:11;;;;;;;45.72;22.70;;;11.60;99.90;;;;;;6159463;23;20040;-78
2022/11/11 13:14:59;;;;;;;53.33;24.08;;;11.60;99.90;;;;;;6159250;23;20072;-78
2022/11/11 13:17:25;;;;;;;52.40;23.25;;;11.50;99.90;;;;;;6159587;23;20489;-78
2022/11/11 13:19:54;;;;;;;48.20;22.88;;;11.60;99.90;;;;;;6159498;23;20064;-78
2022/11/11 13:22:28;;;;;;;49.97;23.95;;;11.50;99.90;;;;;;6159452;23;20409;-79
2022/11/11 13:24:55;;;;;;;51.47;24.00;;;11.60;99.90;;;;;;6159377;23;20017;-78
2022/11/11 13:27:32;;;;;;;47.88;22.65;;;11.60;99.90;;;;;;6186094;23;20021;-78
2022/11/11 13:30:04;;;;;;;44.47;21.73;;;11.60;99.90;;;;;;6185812;23;20392;-78
2022/11/11 13:32:40;;;;;;;42.75;20.67;;;11.60;99.90;;;;;;6159534;23;20025;-78
2022/11/11 13:35:20;;;;;;;46.90;22.77;;;11.60;99.90;;;;;;6186045;23;20024;-78
2022/11/11 13:37:47;;;;;;;41.47;22.40;;;11.50;99.90;;;;;;6159429;23;20017;-77
2022/11/11 13:40:28;;;;;;;43.65;21.45;;;11.60;99.90;;;;;;6186026;23;20020;-77
2022/11/11 13:42:54;;;;;;;42.63;21.95;;;11.60;99.90;;;;;;6159321;23;20509;-79
2022/11/11 13:45:27;;;;;;;40.53;19.85;;;11.50;99.90;;;;;;6159392;23;20060;-78
2022/11/11 13:47:54;;;;;;;41.83;21.42;;;11.60;99.90;;;;;;6159376;23;20092;-79
2022/11/11 13:50:25;;;;;;;45.15;21.33;;;11.60;99.90;;;;;;6186016;23;20021;-77
2022/11/11 13:53:27;;;;;;;43.92;20.15;;;11.50;99.90;;;;;;6159369;23;20020;-78
2022/11/11 13:56:01;;;;;;;42.55;20.17;;;11.50;99.90;;;;;;6135800;23;20055;-78
2022/11/11 13:58:31;;;;;;;43.70;21.00;;;11.50;99.90;;;;;;6185794;23;20013;-78
2022/11/11 14:01:00;;;;;;;41.47;21.38;;;11.60;99.90;;;;;;6159286;23;20080;-78
2022/11/11 14:03:25;;;;;;;47.72;22.48;;;11.50;99.90;;;;;;6185579;23;20009;-81
2022/11/11 14:06:13;;;;;;;49.53;21.63;;;11.50;99.90;;;;;;6185539;23;20075;-81